Greeneville, Tennessee
Current Conditions -  °F | °C
As of 5:35 AM on Tuesday 27 Jan 2015 (Local Time) from KMOR Reporting Station
Overcast Overcast  
Wind Chill: -5°   Ceiling: 600
Heat Index: -1°   Visibility: 8mi
Dew Point: -2°   Wind: 8mph
Humidity: 93%   Direction: 250°WSW
Pressure: 29.84"   Gusts: NA
Location:  36.16°N, 82.83°W
Report Text: KMOR 271035Z AUTO 25007KT 8SM OVC006 M01/M02 A2984 RMK
Loading
Personal Weather Stations






























Interactive Weather Map New forecast layout! Learn more

10-Day Weather Forecast

Advertisements
Track Severe Weather on mobile